createdAt,value
2018-01-27T00:01:05.291Z,30.83
2018-01-27T00:03:33.039Z,26.20
2018-01-27T00:06:00.688Z,25.67
2018-01-27T00:08:29.058Z,24.40
2018-01-27T00:10:57.471Z,28.53
2018-01-27T00:13:25.067Z,25.00
2018-01-27T00:15:52.702Z,26.43
2018-01-27T00:18:20.462Z,22.10
2018-01-27T00:20:48.124Z,26.30
2018-01-27T00:23:15.764Z,31.93
2018-01-27T00:25:43.330Z,24.73
2018-01-27T00:28:10.964Z,26.50
2018-01-27T00:30:39.432Z,26.47
2018-01-27T00:33:07.844Z,24.07
2018-01-27T00:35:35.438Z,23.90
2018-01-27T00:38:03.127Z,29.47
2018-01-27T00:40:30.820Z,29.50
2018-01-27T00:42:58.407Z,26.87
2018-01-27T00:45:25.983Z,26.33
2018-01-27T00:47:53.577Z,30.40
2018-01-27T00:50:21.918Z,31.17
2018-01-27T00:52:49.511Z,32.30
2018-01-27T00:55:17.880Z,30.47
2018-01-27T00:57:46.214Z,35.10
2018-01-27T01:00:13.815Z,31.43
2018-01-27T01:02:42.151Z,25.00
2018-01-27T01:05:09.790Z,32.70
2018-01-27T01:07:37.356Z,30.67
2018-01-27T01:10:04.954Z,27.33
2018-01-27T01:12:32.515Z,34.80
2018-01-27T01:15:00.115Z,33.63
2018-01-27T01:17:27.826Z,36.80
2018-01-27T01:19:55.566Z,33.33
2018-01-27T01:22:23.218Z,45.03
2018-01-27T01:24:50.782Z,30.70
2018-01-27T01:27:18.550Z,37.27
2018-01-27T01:29:46.186Z,35.70
2018-01-27T01:32:13.751Z,30.93
2018-01-27T01:34:41.412Z,37.90
2018-01-27T01:37:08.966Z,31.27
2018-01-27T01:39:36.612Z,41.03
2018-01-27T01:42:04.934Z,35.87
2018-01-27T01:44:32.788Z,35.87
2018-01-27T01:47:00.344Z,38.17
2018-01-27T01:49:27.894Z,38.83
2018-01-27T01:51:55.490Z,34.63
2018-01-27T01:54:23.051Z,38.67
2018-01-27T01:56:50.635Z,40.80
2018-01-27T01:59:19.023Z,41.10
2018-01-27T02:01:46.628Z,42.00
2018-01-27T02:04:14.182Z,34.53
2018-01-27T02:06:41.770Z,41.70
2018-01-27T02:09:09.367Z,46.27
2018-01-27T02:11:36.934Z,45.17
2018-01-27T02:14:04.510Z,41.73
2018-01-27T02:16:32.071Z,48.73
2018-01-27T02:18:59.682Z,44.40
2018-01-27T02:21:27.998Z,46.10
2018-01-27T02:23:55.566Z,52.67
2018-01-27T02:26:23.196Z,47.80
2018-01-27T02:28:50.894Z,54.10
2018-01-27T02:31:18.463Z,54.37
2018-01-27T02:33:46.030Z,52.87
2018-01-27T02:36:13.722Z,56.93
2018-01-27T02:38:42.094Z,51.40
2018-01-27T02:41:10.450Z,57.13
2018-01-27T02:43:38.022Z,54.33
2018-01-27T02:46:06.454Z,55.17
2018-01-27T02:48:34.034Z,59.73
2018-01-27T02:51:01.594Z,55.47
2018-01-27T02:53:29.185Z,62.10
2018-01-27T02:55:57.505Z,56.27
2018-01-27T02:58:25.106Z,63.50
2018-01-27T03:00:52.695Z,65.70
2018-01-27T03:03:20.291Z,56.07
2018-01-27T03:05:47.886Z,63.37
2018-01-27T03:08:15.518Z,62.90
2018-01-27T03:10:43.228Z,65.43
2018-01-27T03:13:11.569Z,71.47
2018-01-27T03:15:39.156Z,67.77
2018-01-27T03:18:07.474Z,67.10
2018-01-27T03:20:35.055Z,59.97
2018-01-27T03:23:02.610Z,60.43
2018-01-27T03:25:30.209Z,58.23
2018-01-27T03:27:58.562Z,49.90
2018-01-27T03:30:26.165Z,57.27
2018-01-27T03:32:53.766Z,58.17
2018-01-27T03:35:21.405Z,53.03
2018-01-27T03:37:48.978Z,46.60
2018-01-27T03:40:16.586Z,61.23
2018-01-27T03:42:44.927Z,58.80
2018-01-27T03:45:12.662Z,65.77
2018-01-27T03:47:40.219Z,55.17
2018-01-27T03:50:07.895Z,60.83
2018-01-27T03:52:35.490Z,65.27
2018-01-27T03:55:03.815Z,58.03
2018-01-27T03:57:31.459Z,61.87
2018-01-27T03:59:59.071Z,66.77
2018-01-27T04:02:26.650Z,68.07
2018-01-27T04:04:55.070Z,69.53
2018-01-27T04:07:22.634Z,68.27
2018-01-27T04:09:50.223Z,64.87
2018-01-27T04:12:17.791Z,69.03
2018-01-27T04:14:45.477Z,69.03
2018-01-27T04:17:13.802Z,62.87
2018-01-27T04:19:41.402Z,64.80
2018-01-27T04:22:09.734Z,56.53
2018-01-27T04:24:37.322Z,55.77
2018-01-27T04:27:04.875Z,60.63
2018-01-27T04:29:32.418Z,51.20
2018-01-27T04:32:00.011Z,58.87
2018-01-27T04:34:27.599Z,62.60
2018-01-27T04:36:55.155Z,53.40
2018-01-27T04:39:22.741Z,48.17
2018-01-27T04:41:50.295Z,52.03
2018-01-27T04:44:17.883Z,51.50
2018-01-27T04:46:45.533Z,46.20
2018-01-27T04:49:13.122Z,44.80
2018-01-27T04:51:41.446Z,47.73
2018-01-27T04:54:09.053Z,48.30
2018-01-27T04:56:37.378Z,48.03
2018-01-27T04:59:04.938Z,46.87
2018-01-27T05:01:32.636Z,44.30
2018-01-27T05:04:00.206Z,46.93
2018-01-27T05:06:28.622Z,46.07
2018-01-27T05:08:56.595Z,49.83
2018-01-27T05:11:24.170Z,43.13
2018-01-27T05:13:51.774Z,45.97
2018-01-27T05:16:20.113Z,43.20
2018-01-27T05:18:47.713Z,48.70
2018-01-27T05:21:16.059Z,43.30
2018-01-27T05:23:43.706Z,43.53
2018-01-27T05:26:11.289Z,55.60
2018-01-27T05:28:38.855Z,52.90
2018-01-27T05:31:06.582Z,46.70
2018-01-27T05:33:34.142Z,47.23
2018-01-27T05:36:01.751Z,52.23
2018-01-27T05:38:30.076Z,49.30
2018-01-27T05:40:57.842Z,45.03
2018-01-27T05:43:25.436Z,60.47
2018-01-27T05:45:53.000Z,56.47
2018-01-27T05:48:21.358Z,49.70
2018-01-27T05:50:48.947Z,45.60
2018-01-27T05:53:17.437Z,58.43
2018-01-27T05:55:44.998Z,52.60
2018-01-27T05:58:13.502Z,54.33
2018-01-27T06:00:41.087Z,46.00
2018-01-27T06:03:08.710Z,52.33
2018-01-27T06:05:36.265Z,63.83
2018-01-27T06:08:03.885Z,48.03
2018-01-27T06:10:31.483Z,51.70
2018-01-27T06:12:59.039Z,57.03
2018-01-27T06:15:26.618Z,58.87
2018-01-27T06:17:54.206Z,56.13
2018-01-27T06:20:21.977Z,49.50
2018-01-27T06:22:49.574Z,50.33
2018-01-27T06:25:17.138Z,58.17
2018-01-27T06:27:44.799Z,50.67
2018-01-27T06:30:12.368Z,52.40
2018-01-27T06:32:39.931Z,50.90
2018-01-27T06:35:07.522Z,59.60
2018-01-27T06:37:35.081Z,58.73
2018-01-27T06:40:02.672Z,61.93
2018-01-27T06:42:31.146Z,61.10
2018-01-27T06:44:59.566Z,60.73
2018-01-27T06:47:27.140Z,57.07
2018-01-27T06:49:54.790Z,63.50
2018-01-27T06:52:22.392Z,60.67
2018-01-27T06:54:49.994Z,62.30
2018-01-27T06:57:17.571Z,70.10
2018-01-27T06:59:45.135Z,58.50
2018-01-27T07:02:12.744Z,63.40
2018-01-27T07:04:41.064Z,62.67
2018-01-27T07:07:08.666Z,62.07
2018-01-27T07:09:37.014Z,72.97
2018-01-27T07:12:04.587Z,74.17
2018-01-27T07:14:32.228Z,71.17
2018-01-27T07:16:59.814Z,66.93
2018-01-27T07:19:28.346Z,61.53
2018-01-27T07:21:55.911Z,56.20
2018-01-27T07:24:23.498Z,61.60
2018-01-27T07:26:51.082Z,72.53
2018-01-27T07:29:19.502Z,64.90
2018-01-27T07:31:47.122Z,53.10
2018-01-27T07:34:15.453Z,54.13
2018-01-27T07:36:43.059Z,59.73
2018-01-27T07:39:11.389Z,52.80
2018-01-27T07:41:38.945Z,52.07
2018-01-27T07:44:06.583Z,51.23
2018-01-27T07:46:34.885Z,54.13
2018-01-27T07:49:02.509Z,54.83
2018-01-27T07:51:30.082Z,61.47
2018-01-27T07:53:57.653Z,54.93
2018-01-27T07:56:25.250Z,63.70
2018-01-27T07:58:52.813Z,56.60
2018-01-27T08:01:21.183Z,53.07
2018-01-27T08:03:48.747Z,55.23
2018-01-27T08:06:16.322Z,58.30
2018-01-27T08:08:44.691Z,51.90
2018-01-27T08:11:13.040Z,53.97
2018-01-27T08:13:40.627Z,53.93
2018-01-27T08:16:08.951Z,57.87
2018-01-27T08:18:36.554Z,54.10
2018-01-27T08:21:04.130Z,61.10
2018-01-27T08:23:31.746Z,57.70
2018-01-27T08:25:59.334Z,61.43
2018-01-27T08:28:27.727Z,63.00
2018-01-27T08:30:56.083Z,72.07
2018-01-27T08:33:23.654Z,59.87
2018-01-27T08:35:51.998Z,63.23
2018-01-27T08:38:19.739Z,59.77
2018-01-27T08:40:47.318Z,70.10
2018-01-27T08:43:14.910Z,67.30
2018-01-27T08:45:43.254Z,66.13
2018-01-27T08:48:10.823Z,70.57
2018-01-27T08:50:38.435Z,65.60
2018-01-27T08:53:06.012Z,65.67
2018-01-27T08:55:33.598Z,51.07
2018-01-27T08:58:01.174Z,56.30
2018-01-27T09:00:29.596Z,65.70
2018-01-27T09:02:57.161Z,61.87
2018-01-27T09:05:24.792Z,56.90
2018-01-27T09:07:53.138Z,64.53
2018-01-27T09:10:21.483Z,58.83
2018-01-27T09:12:49.066Z,64.83
2018-01-27T09:15:16.646Z,57.00
2018-01-27T09:17:45.004Z,66.73
2018-01-27T09:20:12.625Z,72.40
2018-01-27T09:22:40.242Z,76.60
2018-01-27T09:25:08.618Z,67.63
2018-01-27T09:27:36.997Z,60.70
2018-01-27T09:30:05.532Z,73.37
2018-01-27T09:32:33.134Z,64.17
2018-01-27T09:35:01.514Z,49.50
2018-01-27T09:37:29.882Z,55.13
2018-01-27T09:39:57.670Z,67.37
2018-01-27T09:42:25.303Z,55.63
2018-01-27T09:44:52.870Z,57.77
2018-01-27T09:47:21.391Z,65.23
2018-01-27T09:49:49.122Z,54.47
2018-01-27T09:52:17.674Z,56.43
2018-01-27T09:54:45.254Z,53.17
2018-01-27T09:57:13.699Z,55.80
2018-01-27T09:59:41.310Z,51.10
2018-01-27T10:02:09.010Z,51.97
2018-01-27T10:04:36.607Z,53.27
2018-01-27T10:07:04.186Z,46.87
2018-01-27T10:09:32.707Z,60.77
2018-01-27T10:12:00.282Z,48.77
2018-01-27T10:14:27.862Z,48.80
2018-01-27T10:16:55.486Z,44.50
2018-01-27T10:19:23.079Z,48.60
2018-01-27T10:21:50.655Z,48.60
2018-01-27T10:24:19.002Z,48.13
2018-01-27T10:26:46.827Z,44.33
2018-01-27T10:29:14.400Z,44.53
2018-01-27T10:31:41.996Z,45.87
2018-01-27T10:34:09.558Z,45.00
2018-01-27T10:36:37.163Z,36.90
2018-01-27T10:39:04.723Z,39.07
2018-01-27T10:41:32.287Z,35.87
2018-01-27T10:43:59.876Z,42.60
2018-01-27T10:46:27.439Z,45.63
2018-01-27T10:48:55.045Z,45.17
2018-01-27T10:51:22.611Z,51.27
2018-01-27T10:53:50.179Z,45.67
2018-01-27T10:56:17.799Z,43.83
2018-01-27T10:58:46.122Z,42.47
2018-01-27T11:01:13.748Z,46.10
2018-01-27T11:03:41.323Z,44.90
2018-01-27T11:06:08.886Z,43.03
2018-01-27T11:08:36.467Z,44.10
2018-01-27T11:11:04.063Z,45.03
2018-01-27T11:13:32.527Z,45.53
2018-01-27T11:16:00.113Z,46.87
2018-01-27T11:18:28.454Z,45.30
2018-01-27T11:20:56.054Z,44.80
2018-01-27T11:23:23.625Z,43.83
2018-01-27T11:25:51.302Z,46.13
2018-01-27T11:28:18.895Z,47.97
2018-01-27T11:30:47.965Z,48.17
2018-01-27T11:33:15.747Z,44.73
2018-01-27T11:35:43.434Z,46.43
2018-01-27T11:38:11.802Z,47.40
2018-01-27T11:40:39.394Z,50.43
2018-01-27T11:43:07.006Z,47.33
2018-01-27T11:45:34.642Z,49.20
2018-01-27T11:48:02.381Z,42.33
2018-01-27T11:50:29.958Z,48.33
2018-01-27T11:52:57.544Z,47.73
2018-01-27T11:55:25.172Z,41.00
2018-01-27T11:57:52.824Z,41.23
2018-01-27T12:00:20.464Z,43.00
2018-01-27T12:02:48.811Z,42.40
2018-01-27T12:05:16.410Z,36.77
2018-01-27T12:07:43.999Z,35.10
2018-01-27T12:10:11.639Z,36.50
2018-01-27T12:12:39.235Z,42.47
2018-01-27T12:15:06.837Z,47.23
2018-01-27T12:17:35.205Z,39.13
2018-01-27T12:20:03.591Z,39.80
2018-01-27T12:22:32.053Z,36.43
2018-01-27T12:24:59.667Z,36.63
2018-01-27T12:27:27.218Z,36.20
2018-01-27T12:29:54.811Z,39.73
2018-01-27T12:32:23.326Z,38.53
2018-01-27T12:34:51.799Z,39.47
2018-01-27T12:37:20.178Z,37.30
2018-01-27T12:39:48.530Z,36.27
2018-01-27T12:42:16.146Z,35.77
2018-01-27T12:44:43.726Z,32.53
2018-01-27T12:47:11.334Z,32.10
2018-01-27T12:49:38.902Z,32.57
2018-01-27T12:52:06.475Z,32.30
2018-01-27T12:54:34.243Z,37.73
2018-01-27T12:57:01.810Z,39.23
2018-01-27T12:59:29.406Z,37.57
2018-01-27T13:01:56.963Z,36.33
2018-01-27T13:04:26.051Z,38.50
2018-01-27T13:06:53.637Z,35.97
2018-01-27T13:09:21.970Z,36.20
2018-01-27T13:11:49.566Z,35.60
2018-01-27T13:14:17.147Z,31.90
2018-01-27T13:16:44.749Z,37.47
2018-01-27T13:19:12.407Z,39.47
2018-01-27T13:21:39.999Z,38.20
2018-01-27T13:24:07.615Z,41.50
2018-01-27T13:26:35.217Z,31.80
2018-01-27T13:29:02.830Z,32.60
2018-01-27T13:31:30.386Z,26.17
2018-01-27T13:33:58.064Z,27.87
2018-01-27T13:36:25.642Z,29.13
2018-01-27T13:38:53.207Z,35.70
2018-01-27T13:41:20.806Z,40.13
2018-01-27T13:43:48.388Z,36.80
2018-01-27T13:46:15.994Z,31.23
2018-01-27T13:48:43.550Z,36.50
2018-01-27T13:51:11.928Z,31.67
2018-01-27T13:53:39.528Z,31.83
2018-01-27T13:56:07.132Z,32.60
2018-01-27T13:58:34.770Z,35.53
2018-01-27T14:01:02.339Z,35.90
2018-01-27T14:03:29.938Z,32.23
2018-01-27T14:05:58.407Z,33.93
2018-01-27T14:08:26.949Z,32.87
2018-01-27T14:10:54.614Z,38.10
2018-01-27T14:13:22.184Z,37.70
2018-01-27T14:15:49.788Z,35.17
2018-01-27T14:18:17.346Z,31.47
2018-01-27T14:20:44.958Z,47.67
2018-01-27T14:23:12.542Z,36.20
2018-01-27T14:25:40.970Z,36.30
2018-01-27T14:28:08.577Z,34.00
2018-01-27T14:30:36.154Z,37.23
2018-01-27T14:33:04.554Z,39.00
2018-01-27T14:35:32.126Z,30.47
2018-01-27T14:37:59.726Z,36.40
2018-01-27T14:40:27.302Z,35.13
2018-01-27T14:42:55.641Z,33.57
2018-01-27T14:45:23.223Z,36.07
2018-01-27T14:47:51.574Z,36.83
2018-01-27T14:50:19.164Z,33.77
2018-01-27T14:52:47.514Z,32.23
2018-01-27T14:55:15.127Z,31.13
2018-01-27T14:57:42.694Z,34.33
2018-01-27T15:00:10.279Z,40.60
2018-01-27T15:02:37.886Z,32.47
2018-01-27T15:05:06.226Z,37.43
2018-01-27T15:07:33.824Z,36.23
2018-01-27T15:10:02.159Z,33.53
2018-01-27T15:12:29.986Z,39.57
2018-01-27T15:14:57.651Z,45.00
2018-01-27T15:17:25.266Z,36.23
2018-01-27T15:19:52.877Z,44.90
2018-01-27T15:22:20.438Z,41.77
2018-01-27T15:24:48.038Z,37.13
2018-01-27T15:27:15.610Z,42.27
2018-01-27T15:29:45.610Z,43.27
2018-01-27T15:32:13.213Z,39.20
2018-01-27T15:34:40.868Z,40.17
2018-01-27T15:37:08.466Z,32.03
2018-01-27T15:42:09.925Z,33.70
2018-01-27T15:44:37.499Z,47.90
2018-01-27T15:47:05.206Z,38.63
2018-01-27T15:49:32.790Z,36.97
2018-01-27T15:52:00.415Z,43.30
2018-01-27T15:54:28.743Z,37.50
2018-01-27T15:56:56.294Z,42.73
2018-01-27T15:59:23.895Z,35.63
2018-01-27T16:01:51.492Z,45.50
2018-01-27T16:04:19.106Z,41.93
2018-01-27T16:06:46.669Z,40.90
2018-01-27T16:09:14.258Z,38.97
2018-01-27T16:11:41.822Z,46.03
2018-01-27T16:14:09.402Z,42.10
2018-01-27T16:16:37.059Z,39.43
2018-01-27T16:19:04.631Z,43.57
2018-01-27T16:21:32.223Z,42.93
2018-01-27T16:23:59.804Z,45.13
2018-01-27T16:26:28.158Z,41.83
2018-01-27T16:28:55.746Z,41.07
2018-01-27T16:31:23.374Z,47.93
2018-01-27T16:33:50.951Z,39.93
2018-01-27T16:36:19.282Z,42.80
2018-01-27T16:38:47.003Z,45.60
2018-01-27T16:41:14.575Z,48.60
2018-01-27T16:43:42.196Z,48.20
2018-01-27T16:46:09.754Z,47.77
2018-01-27T16:48:38.132Z,43.93
2018-01-27T16:51:05.702Z,42.83
2018-01-27T16:53:34.043Z,43.83
2018-01-27T16:56:01.774Z,47.63
2018-01-27T16:58:29.362Z,51.10
2018-01-27T17:00:56.960Z,44.50
2018-01-27T17:03:25.453Z,39.63
2018-01-27T17:05:53.163Z,45.63
2018-01-27T17:08:20.739Z,50.57
2018-01-27T17:10:48.381Z,45.37
2018-01-27T17:13:15.956Z,40.97
2018-01-27T17:15:43.540Z,54.77
2018-01-27T17:18:11.919Z,44.77
2018-01-27T17:20:40.449Z,46.47
2018-01-27T17:23:08.159Z,46.60
2018-01-27T17:25:36.522Z,45.70
2018-01-27T17:28:05.057Z,50.73
2018-01-27T17:30:32.661Z,47.70
2018-01-27T17:33:00.237Z,46.97
2018-01-27T17:35:28.650Z,52.00
2018-01-27T17:37:56.363Z,46.37
2018-01-27T17:40:24.890Z,45.47
2018-01-27T17:42:52.591Z,48.63
2018-01-27T17:45:20.193Z,42.43
2018-01-27T17:47:47.818Z,48.50
2018-01-27T17:50:15.402Z,43.63
2018-01-27T17:52:43.003Z,44.70
2018-01-27T17:55:10.595Z,45.03
2018-01-27T17:57:38.191Z,44.10
2018-01-27T18:00:05.755Z,43.60
2018-01-27T18:02:33.370Z,45.40
2018-01-27T18:05:00.959Z,43.87
2018-01-27T18:07:28.534Z,44.17
2018-01-27T18:09:56.162Z,44.60
2018-01-27T18:12:24.503Z,38.97
2018-01-27T18:14:52.144Z,43.40
2018-01-27T18:17:19.745Z,50.33
2018-01-27T18:19:48.838Z,41.20
2018-01-27T18:22:16.518Z,46.90
2018-01-27T18:24:44.879Z,44.13
2018-01-27T18:27:13.348Z,43.47
2018-01-27T18:29:40.910Z,42.23
2018-01-27T18:32:08.506Z,51.50
2018-01-27T18:34:36.070Z,53.83
2018-01-27T18:37:03.680Z,54.13
2018-01-27T18:39:31.246Z,49.10
2018-01-27T18:41:58.835Z,57.60
2018-01-27T18:44:27.361Z,56.33
2018-01-27T18:46:54.931Z,50.00
2018-01-27T18:49:22.526Z,50.50
2018-01-27T18:51:50.866Z,51.13
2018-01-27T18:54:18.466Z,49.90
2018-01-27T18:56:46.813Z,48.60
2018-01-27T18:59:14.408Z,50.17
2018-01-27T19:01:42.134Z,51.60
2018-01-27T19:04:09.710Z,56.80
2018-01-27T19:06:38.086Z,54.57
2018-01-27T19:09:06.507Z,47.03
2018-01-27T19:11:34.182Z,50.57
2018-01-27T19:14:01.778Z,44.53
2018-01-27T19:16:29.362Z,53.53
2018-01-27T19:18:56.959Z,52.73
2018-01-27T19:21:24.526Z,60.10
2018-01-27T19:23:52.134Z,51.03
2018-01-27T19:26:20.619Z,50.13
2018-01-27T19:28:48.342Z,61.70
2018-01-27T19:31:15.903Z,47.70
2018-01-27T19:33:43.562Z,49.57
2018-01-27T19:36:11.115Z,50.97
2018-01-27T19:38:38.701Z,47.57
2018-01-27T19:41:07.102Z,47.93
2018-01-27T19:43:34.691Z,49.43
2018-01-27T19:46:02.362Z,55.07
2018-01-27T19:48:29.918Z,54.53
2018-01-27T19:50:57.592Z,44.70
2018-01-27T19:53:25.195Z,59.87
2018-01-27T19:55:52.760Z,62.83
2018-01-27T19:58:20.369Z,61.40
2018-01-27T20:00:47.939Z,61.30
2018-01-27T20:03:15.543Z,47.33
2018-01-27T20:05:43.103Z,51.63
2018-01-27T20:08:11.582Z,53.00
2018-01-27T20:10:39.142Z,50.50
2018-01-27T20:13:06.730Z,58.00
2018-01-27T20:15:34.403Z,52.13
2018-01-27T20:18:01.980Z,48.90
2018-01-27T20:20:29.567Z,53.10
2018-01-27T20:22:57.139Z,58.77
2018-01-27T20:25:24.714Z,61.47
2018-01-27T20:27:52.316Z,54.87
2018-01-27T20:30:19.890Z,55.83
2018-01-27T20:32:48.450Z,55.10
2018-01-27T20:35:16.058Z,52.67
2018-01-27T20:37:43.680Z,48.83
2018-01-27T20:40:12.015Z,58.53
2018-01-27T20:42:39.631Z,52.70
2018-01-27T20:45:07.200Z,61.77
2018-01-27T20:47:34.767Z,63.97
2018-01-27T20:50:02.371Z,66.10
2018-01-27T20:52:29.963Z,71.37
2018-01-27T20:54:58.357Z,57.20
2018-01-27T20:57:25.955Z,53.00
2018-01-27T20:59:53.552Z,64.90
2018-01-27T21:02:21.902Z,61.27
2018-01-27T21:04:49.518Z,60.37
2018-01-27T21:07:17.150Z,60.77
2018-01-27T21:09:45.542Z,71.60
2018-01-27T21:12:13.235Z,65.30
2018-01-27T21:14:40.819Z,52.37
2018-01-27T21:17:08.434Z,67.23
2018-01-27T21:19:36.079Z,56.33
2018-01-27T21:22:03.811Z,55.20
2018-01-27T21:24:31.414Z,63.47
2018-01-27T21:26:58.998Z,58.63
2018-01-27T21:29:26.610Z,61.77
2018-01-27T21:31:55.022Z,61.10
2018-01-27T21:34:22.621Z,64.70
2018-01-27T21:36:50.218Z,64.57
2018-01-27T21:39:17.826Z,64.13
2018-01-27T21:41:45.398Z,65.63
2018-01-27T21:44:13.011Z,60.63
2018-01-27T21:46:40.626Z,64.27
2018-01-27T21:49:08.982Z,62.47
2018-01-27T21:51:36.583Z,68.77
2018-01-27T21:54:04.178Z,59.78
2018-01-27T21:56:31.795Z,68.43
2018-01-27T21:59:00.228Z,68.00
2018-01-27T22:01:27.842Z,65.30
2018-01-27T22:03:55.431Z,68.13
2018-01-27T22:06:23.039Z,68.83
2018-01-27T22:08:51.562Z,69.37
2018-01-27T22:11:19.155Z,62.30
2018-01-27T22:13:46.765Z,62.73
2018-01-27T22:16:14.354Z,81.93
2018-01-27T22:18:41.962Z,75.07
2018-01-27T22:21:10.315Z,61.73
2018-01-27T22:23:37.947Z,88.87
2018-01-27T22:26:05.554Z,80.57
2018-01-27T22:28:33.920Z,73.37
2018-01-27T22:31:01.634Z,81.43
2018-01-27T22:33:29.203Z,64.37
2018-01-27T22:35:56.931Z,62.70
2018-01-27T22:38:24.580Z,64.40
2018-01-27T22:40:52.286Z,74.82
2018-01-27T22:43:19.874Z,65.70
2018-01-27T22:45:47.501Z,73.30
2018-01-27T22:48:15.111Z,77.87
2018-01-27T22:50:43.448Z,65.05
2018-01-27T22:53:11.072Z,72.50
2018-01-27T22:55:38.639Z,73.80
2018-01-27T22:58:06.242Z,76.37
2018-01-27T23:00:35.358Z,73.73
2018-01-27T23:03:04.051Z,78.95
2018-01-27T23:05:31.622Z,79.40
2018-01-27T23:07:59.242Z,81.40
2018-01-27T23:10:26.831Z,97.75
2018-01-27T23:12:54.391Z,81.40
2018-01-27T23:15:22.792Z,91.60
2018-01-27T23:17:50.426Z,76.00
2018-01-27T23:20:18.008Z,76.25
2018-01-27T23:22:45.615Z,76.97
2018-01-27T23:25:13.374Z,114.70
2018-01-27T23:27:40.975Z,100.25
2018-01-27T23:30:08.551Z,115.20
2018-01-27T23:32:36.137Z,104.07
2018-01-27T23:35:03.715Z,133.00
2018-01-27T23:37:31.317Z,128.60
2018-01-27T23:39:58.987Z,124.70
2018-01-27T23:42:26.574Z,147.13
2018-01-27T23:44:54.170Z,321.43
2018-01-27T23:47:22.530Z,378.90
2018-01-27T23:49:50.147Z,198.87
2018-01-27T23:52:17.749Z,146.07
2018-01-27T23:54:45.322Z,157.40
2018-01-27T23:57:13.683Z,180.55
2018-01-27T23:59:41.270Z,223.40
